createdAt,value
2018-12-30T00:00:22.980Z,16.80
2018-12-30T00:03:13.666Z,17.05
2018-12-30T00:06:03.876Z,16.82
2018-12-30T00:08:54.131Z,17.92
2018-12-30T00:11:44.041Z,18.27
2018-12-30T00:14:34.159Z,17.67
2018-12-30T00:17:24.894Z,18.37
2018-12-30T00:20:15.539Z,18.85
2018-12-30T00:23:05.727Z,16.15
2018-12-30T00:25:57.913Z,14.83
2018-12-30T00:28:47.443Z,14.55
2018-12-30T00:31:37.753Z,14.60
2018-12-30T00:34:27.867Z,14.73
2018-12-30T00:37:18.110Z,15.08
2018-12-30T00:40:08.353Z,13.00
2018-12-30T00:42:58.852Z,13.78
2018-12-30T00:45:48.813Z,13.20
2018-12-30T00:48:39.400Z,14.65
2018-12-30T00:51:29.650Z,15.38
2018-12-30T00:54:19.821Z,14.15
2018-12-30T00:57:10.128Z,11.90
2018-12-30T01:00:00.037Z,12.57
2018-12-30T01:02:50.137Z,11.68
2018-12-30T01:05:39.944Z,12.35
2018-12-30T01:08:29.682Z,12.63
2018-12-30T01:11:19.628Z,11.15
2018-12-30T01:14:09.855Z,12.98
2018-12-30T01:17:00.151Z,10.97
2018-12-30T01:19:50.437Z,12.00
2018-12-30T01:22:40.342Z,12.90
2018-12-30T01:25:30.869Z,11.25
2018-12-30T01:28:21.199Z,12.18
2018-12-30T01:31:10.997Z,13.07
2018-12-30T01:34:00.996Z,13.75
2018-12-30T01:36:51.057Z,11.38
2018-12-30T01:39:41.175Z,11.57
2018-12-30T01:42:31.269Z,12.13
2018-12-30T01:45:21.107Z,10.50
2018-12-30T01:48:11.413Z,12.80
2018-12-30T01:51:02.265Z,11.33
2018-12-30T01:53:52.545Z,12.07
2018-12-30T01:56:42.788Z,11.05
2018-12-30T01:59:32.967Z,10.88
2018-12-30T02:02:21.651Z,11.48
2018-12-30T02:05:14.081Z,12.73
2018-12-30T02:08:04.057Z,11.45
2018-12-30T02:10:54.066Z,12.60
2018-12-30T02:13:44.291Z,12.85
2018-12-30T02:16:34.326Z,13.40
2018-12-30T02:19:24.856Z,12.10
2018-12-30T02:22:15.027Z,11.88
2018-12-30T02:25:05.423Z,11.55
2018-12-30T02:27:55.651Z,11.88
2018-12-30T02:30:46.579Z,13.07
2018-12-30T02:33:36.591Z,10.95
2018-12-30T02:36:26.349Z,12.43
2018-12-30T02:39:16.645Z,11.73
2018-12-30T02:42:07.106Z,12.40
2018-12-30T02:44:57.695Z,10.10
2018-12-30T02:47:48.134Z,12.18
2018-12-30T02:50:38.572Z,10.88
2018-12-30T02:53:28.777Z,9.30
2018-12-30T02:56:18.919Z,11.38
2018-12-30T02:59:09.349Z,10.40
2018-12-30T03:01:59.563Z,12.33
2018-12-30T03:04:49.744Z,10.95
2018-12-30T03:07:39.797Z,9.03
2018-12-30T03:10:30.083Z,9.70
2018-12-30T03:13:20.762Z,9.85
2018-12-30T03:16:10.884Z,10.00
2018-12-30T03:19:01.144Z,12.00
2018-12-30T03:21:58.979Z,10.05
2018-12-30T03:24:42.829Z,11.70
2018-12-30T03:27:33.071Z,10.82
2018-12-30T03:30:23.307Z,12.37
2018-12-30T03:33:13.690Z,11.97
2018-12-30T03:36:03.356Z,10.45
2018-12-30T03:38:53.540Z,11.63
2018-12-30T03:41:43.313Z,11.00
2018-12-30T03:44:33.508Z,11.35
2018-12-30T03:47:24.076Z,13.85
2018-12-30T03:50:13.951Z,12.73
2018-12-30T03:53:03.920Z,13.35
2018-12-30T03:55:53.862Z,12.55
2018-12-30T03:58:44.174Z,13.32
2018-12-30T04:01:34.512Z,11.37
2018-12-30T04:04:25.070Z,12.18
2018-12-30T04:07:15.413Z,13.45
2018-12-30T04:10:05.988Z,11.60
2018-12-30T04:12:55.940Z,11.65
2018-12-30T04:15:45.637Z,14.27
2018-12-30T04:18:35.822Z,13.68
2018-12-30T04:21:26.126Z,13.60
2018-12-30T04:24:16.473Z,14.13
2018-12-30T04:27:06.261Z,12.80
2018-12-30T04:29:56.205Z,13.88
2018-12-30T04:32:46.505Z,14.13
2018-12-30T04:35:37.366Z,14.58
2018-12-30T04:38:27.315Z,14.60
2018-12-30T04:41:17.657Z,14.33
2018-12-30T04:44:07.779Z,15.80
2018-12-30T04:46:57.904Z,13.30
2018-12-30T04:49:47.698Z,13.05
2018-12-30T04:52:37.939Z,15.43
2018-12-30T04:55:27.773Z,12.80
2018-12-30T04:58:17.654Z,17.50
2018-12-30T05:01:08.081Z,15.80
2018-12-30T05:03:58.743Z,14.73
2018-12-30T05:06:49.031Z,14.60
2018-12-30T05:09:38.693Z,14.68
2018-12-30T05:12:28.892Z,14.87
2018-12-30T05:15:18.970Z,13.07
2018-12-30T05:18:09.027Z,14.15
2018-12-30T05:20:59.139Z,15.18
2018-12-30T05:23:49.150Z,15.35
2018-12-30T05:26:39.330Z,16.15
2018-12-30T05:29:29.967Z,15.20
2018-12-30T05:32:19.883Z,17.45
2018-12-30T05:35:10.109Z,14.68
2018-12-30T05:38:00.047Z,16.25
2018-12-30T05:40:49.511Z,17.77
2018-12-30T05:43:39.661Z,15.90
2018-12-30T05:46:29.654Z,16.00
2018-12-30T05:49:19.248Z,14.33
2018-12-30T05:52:09.470Z,15.63
2018-12-30T05:54:58.898Z,18.10
2018-12-30T05:57:48.963Z,17.17
2018-12-30T06:00:38.803Z,16.13
2018-12-30T06:03:28.950Z,15.25
2018-12-30T06:06:19.359Z,16.95
2018-12-30T06:09:09.602Z,15.03
2018-12-30T06:11:59.748Z,15.23
2018-12-30T06:14:50.185Z,13.98
2018-12-30T06:17:40.742Z,14.35
2018-12-30T06:20:30.602Z,13.83
2018-12-30T06:23:21.093Z,13.78
2018-12-30T06:26:11.241Z,15.35
2018-12-30T06:29:01.378Z,15.40
2018-12-30T06:31:51.783Z,16.47
2018-12-30T06:34:41.988Z,16.35
2018-12-30T06:37:31.863Z,15.80
2018-12-30T06:40:22.184Z,13.90
2018-12-30T06:43:12.531Z,16.10
2018-12-30T06:46:03.053Z,14.73
2018-12-30T06:48:53.306Z,15.03
2018-12-30T06:51:43.217Z,15.40
2018-12-30T06:54:33.398Z,12.95
2018-12-30T06:57:23.449Z,13.00
2018-12-30T07:00:13.235Z,12.07
2018-12-30T07:03:03.396Z,11.90
2018-12-30T07:05:53.528Z,11.10
2018-12-30T07:08:43.223Z,13.13
2018-12-30T07:11:33.118Z,12.05
2018-12-30T07:14:23.171Z,12.93
2018-12-30T07:17:14.428Z,11.03
2018-12-30T07:20:04.131Z,10.23
2018-12-30T07:22:54.175Z,11.57
2018-12-30T07:25:44.749Z,10.65
2018-12-30T07:28:34.661Z,11.50
2018-12-30T07:31:24.762Z,11.40
2018-12-30T07:34:14.732Z,9.65
2018-12-30T07:37:04.867Z,11.73
2018-12-30T07:39:55.052Z,12.03
2018-12-30T07:42:44.825Z,11.10
2018-12-30T07:45:34.962Z,13.00
2018-12-30T07:48:24.359Z,11.70
2018-12-30T07:51:14.995Z,10.20
2018-12-30T07:54:04.960Z,12.68
2018-12-30T07:56:55.480Z,12.37
2018-12-30T07:59:45.566Z,11.65
2018-12-30T08:02:35.359Z,13.05
2018-12-30T08:05:26.494Z,13.38
2018-12-30T08:08:16.135Z,15.80
2018-12-30T08:11:06.340Z,12.13
2018-12-30T08:13:56.432Z,11.20
2018-12-30T08:16:46.196Z,12.67
2018-12-30T08:19:36.322Z,11.08
2018-12-30T08:22:26.575Z,13.62
2018-12-30T08:25:17.004Z,12.85
2018-12-30T08:28:06.975Z,11.53
2018-12-30T08:30:57.123Z,13.10
2018-12-30T08:33:47.619Z,13.13
2018-12-30T08:36:37.454Z,11.90
2018-12-30T08:39:27.427Z,12.63
2018-12-30T08:42:17.673Z,12.93
2018-12-30T08:45:07.507Z,11.93
2018-12-30T08:47:57.467Z,12.82
2018-12-30T08:50:47.426Z,12.05
2018-12-30T08:53:38.855Z,13.78
2018-12-30T08:56:29.037Z,12.25
2018-12-30T08:59:19.163Z,10.95
2018-12-30T09:02:09.183Z,12.28
2018-12-30T09:04:59.544Z,12.90
2018-12-30T09:07:49.773Z,10.85
2018-12-30T09:10:40.515Z,13.10
2018-12-30T09:13:30.815Z,10.48
2018-12-30T09:16:20.855Z,11.07
2018-12-30T09:19:11.135Z,10.63
2018-12-30T09:22:01.315Z,12.25
2018-12-30T09:24:52.225Z,11.40
2018-12-30T09:27:42.244Z,10.08
2018-12-30T09:30:32.011Z,11.70
2018-12-30T09:33:22.288Z,10.90
2018-12-30T09:36:12.440Z,10.85
2018-12-30T09:39:02.508Z,10.93
2018-12-30T09:41:52.270Z,10.25
2018-12-30T09:44:42.942Z,9.98
2018-12-30T09:47:33.665Z,10.98
2018-12-30T09:50:23.640Z,12.00
2018-12-30T09:53:13.310Z,11.28
2018-12-30T09:56:03.174Z,10.28
2018-12-30T09:58:53.500Z,10.68
2018-12-30T10:01:43.682Z,11.97
2018-12-30T10:04:33.594Z,10.28
2018-12-30T10:07:23.684Z,11.65
2018-12-30T10:10:13.839Z,10.65
2018-12-30T10:13:04.230Z,9.83
2018-12-30T10:15:54.645Z,11.47
2018-12-30T10:18:44.512Z,11.20
2018-12-30T10:21:34.243Z,10.58
2018-12-30T10:24:24.233Z,11.68
2018-12-30T10:27:14.628Z,9.78
2018-12-30T10:30:05.322Z,10.15
2018-12-30T10:32:55.414Z,8.95
2018-12-30T10:35:45.334Z,9.75
2018-12-30T10:38:35.900Z,9.40
2018-12-30T10:41:26.224Z,10.08
2018-12-30T10:44:15.930Z,11.70
2018-12-30T10:47:06.102Z,9.85
2018-12-30T10:49:57.252Z,9.98
2018-12-30T10:52:47.775Z,10.55
2018-12-30T10:55:37.856Z,9.50
2018-12-30T10:58:28.101Z,9.45
2018-12-30T11:01:18.116Z,8.73
2018-12-30T11:04:08.215Z,9.43
2018-12-30T11:06:58.146Z,8.35
2018-12-30T11:09:47.988Z,8.18
2018-12-30T11:12:37.991Z,10.53
2018-12-30T11:15:28.316Z,10.07
2018-12-30T11:18:18.228Z,9.50
2018-12-30T11:21:08.832Z,9.25
2018-12-30T11:23:58.715Z,8.23
2018-12-30T11:26:48.612Z,10.00
2018-12-30T11:29:39.287Z,9.88
2018-12-30T11:32:29.569Z,8.40
2018-12-30T11:35:20.111Z,11.25
2018-12-30T11:38:10.159Z,7.95
2018-12-30T11:41:00.273Z,9.83
2018-12-30T11:43:50.182Z,8.30
2018-12-30T11:46:40.832Z,8.53
2018-12-30T11:49:30.867Z,9.08
2018-12-30T11:52:21.056Z,8.65
2018-12-30T11:55:11.552Z,9.45
2018-12-30T11:58:01.842Z,9.60
2018-12-30T12:00:52.594Z,8.93
2018-12-30T12:03:42.601Z,9.35
2018-12-30T12:06:32.398Z,8.43
2018-12-30T12:09:21.940Z,7.72
2018-12-30T12:12:11.654Z,9.95
2018-12-30T12:15:01.936Z,8.40
2018-12-30T12:17:51.844Z,9.48
2018-12-30T12:20:42.197Z,9.30
2018-12-30T12:23:32.474Z,9.38
2018-12-30T12:26:22.838Z,8.93
2018-12-30T12:29:13.237Z,7.22
2018-12-30T12:32:03.336Z,8.55
2018-12-30T12:34:53.261Z,7.58
2018-12-30T12:37:43.080Z,7.75
2018-12-30T12:40:33.146Z,8.63
2018-12-30T12:43:23.401Z,7.25
2018-12-30T12:46:13.605Z,7.50
2018-12-30T12:49:03.942Z,7.50
2018-12-30T12:51:55.522Z,7.17
2018-12-30T12:54:45.740Z,7.33
2018-12-30T12:57:35.476Z,7.72
2018-12-30T13:00:25.678Z,7.47
2018-12-30T13:03:16.249Z,6.28
2018-12-30T13:06:05.986Z,6.55
2018-12-30T13:08:56.360Z,7.22
2018-12-30T13:11:46.777Z,6.67
2018-12-30T13:14:37.695Z,7.70
2018-12-30T13:17:28.239Z,9.53
2018-12-30T13:20:18.289Z,7.78
2018-12-30T13:23:08.727Z,8.23
2018-12-30T13:25:58.702Z,8.53
2018-12-30T13:28:48.822Z,6.70
2018-12-30T13:31:38.568Z,6.80
2018-12-30T13:34:28.601Z,6.90
2018-12-30T13:37:18.555Z,6.67
2018-12-30T13:40:09.438Z,7.15
2018-12-30T13:42:59.922Z,7.65
2018-12-30T13:45:50.405Z,7.20
2018-12-30T13:48:40.588Z,7.95
2018-12-30T13:51:30.475Z,7.42
2018-12-30T13:54:20.661Z,7.40
2018-12-30T13:57:10.748Z,7.40
2018-12-30T14:00:01.286Z,8.20
2018-12-30T14:02:51.081Z,8.18
2018-12-30T14:05:41.143Z,10.65
2018-12-30T14:08:31.155Z,6.30
2018-12-30T14:11:21.843Z,7.20
2018-12-30T14:14:11.786Z,7.08
2018-12-30T14:17:01.975Z,7.83
2018-12-30T14:19:52.182Z,6.75
2018-12-30T14:22:42.394Z,6.78
2018-12-30T14:25:32.938Z,6.47
2018-12-30T14:28:22.738Z,7.45
2018-12-30T14:31:12.895Z,7.20
2018-12-30T14:34:03.098Z,7.47
2018-12-30T14:36:52.870Z,8.20
2018-12-30T14:39:42.841Z,7.67
2018-12-30T14:42:33.117Z,7.10
2018-12-30T14:45:23.331Z,7.70
2018-12-30T14:48:13.637Z,6.50
2018-12-30T14:51:03.407Z,7.40
2018-12-30T14:53:53.568Z,7.60
2018-12-30T14:56:44.182Z,7.95
2018-12-30T14:59:34.190Z,6.97
2018-12-30T15:02:24.557Z,7.10
2018-12-30T15:05:14.973Z,7.22
2018-12-30T15:08:05.333Z,6.53
2018-12-30T15:10:55.320Z,6.70
2018-12-30T15:13:45.798Z,6.60
2018-12-30T15:16:36.105Z,6.40
2018-12-30T15:19:26.249Z,8.38
2018-12-30T15:22:16.409Z,7.08
2018-12-30T15:25:11.500Z,7.03
2018-12-30T15:27:58.415Z,6.78
2018-12-30T15:30:48.675Z,6.10
2018-12-30T15:33:39.004Z,8.78
2018-12-30T15:36:28.911Z,6.75
2018-12-30T15:39:19.098Z,6.28
2018-12-30T15:42:09.115Z,7.65
2018-12-30T15:44:59.513Z,6.58
2018-12-30T15:47:49.255Z,6.25
2018-12-30T15:50:39.112Z,6.60
2018-12-30T15:53:29.393Z,7.50
2018-12-30T15:56:20.083Z,6.70
2018-12-30T15:59:10.393Z,7.20
2018-12-30T16:02:00.455Z,6.47
2018-12-30T16:04:51.064Z,7.05
2018-12-30T16:07:40.696Z,7.15
2018-12-30T16:10:30.956Z,6.50
2018-12-30T16:13:20.924Z,6.40
2018-12-30T16:16:11.553Z,7.27
2018-12-30T16:19:01.566Z,7.20
2018-12-30T16:21:51.612Z,5.90
2018-12-30T16:24:41.373Z,7.17
2018-12-30T16:27:31.684Z,5.42
2018-12-30T16:30:21.975Z,6.40
2018-12-30T16:33:12.526Z,6.03
2018-12-30T16:36:02.527Z,5.65
2018-12-30T16:38:52.861Z,6.42
2018-12-30T16:41:43.063Z,8.75
2018-12-30T16:44:32.976Z,6.80
2018-12-30T16:47:22.773Z,8.35
2018-12-30T16:50:12.651Z,6.90
2018-12-30T16:53:02.747Z,7.10
2018-12-30T16:55:52.574Z,6.70
2018-12-30T16:58:42.759Z,7.62
2018-12-30T17:01:32.810Z,9.63
2018-12-30T17:04:23.507Z,10.18
2018-12-30T17:07:13.508Z,8.58
2018-12-30T17:10:03.712Z,9.18
2018-12-30T17:12:53.267Z,7.50
2018-12-30T17:15:43.896Z,8.00
2018-12-30T17:18:34.084Z,6.95
2018-12-30T17:21:24.285Z,8.30
2018-12-30T17:24:14.097Z,9.10
2018-12-30T17:27:04.307Z,7.85
2018-12-30T17:29:53.923Z,7.80
2018-12-30T17:32:43.411Z,7.10
2018-12-30T17:35:33.563Z,8.73
2018-12-30T17:38:23.822Z,8.15
2018-12-30T17:41:13.998Z,7.53
2018-12-30T17:44:04.669Z,8.15
2018-12-30T17:46:54.432Z,6.90
2018-12-30T17:49:46.283Z,8.00
2018-12-30T17:52:36.522Z,8.05
2018-12-30T17:55:25.996Z,8.58
2018-12-30T17:58:15.971Z,10.70
2018-12-30T18:01:06.668Z,8.58
2018-12-30T18:03:56.732Z,11.48
2018-12-30T18:06:46.780Z,10.58
2018-12-30T18:09:37.479Z,8.88
2018-12-30T18:12:27.646Z,8.30
2018-12-30T18:15:18.067Z,8.70
2018-12-30T18:18:08.281Z,7.80
2018-12-30T18:20:57.682Z,9.08
2018-12-30T18:23:48.007Z,8.15
2018-12-30T18:26:38.313Z,9.35
2018-12-30T18:29:28.208Z,8.70
2018-12-30T18:32:18.432Z,8.00
2018-12-30T18:35:08.425Z,7.92
2018-12-30T18:37:58.180Z,8.68
2018-12-30T18:40:48.140Z,9.30
2018-12-30T18:43:37.865Z,8.40
2018-12-30T18:46:28.186Z,8.33
2018-12-30T18:49:18.420Z,9.30
2018-12-30T18:52:08.269Z,9.20
2018-12-30T18:54:58.425Z,8.53
2018-12-30T18:57:48.507Z,9.05
2018-12-30T19:00:39.093Z,9.17
2018-12-30T19:03:29.464Z,8.50
2018-12-30T19:06:18.979Z,11.68
2018-12-30T19:09:08.951Z,10.95
2018-12-30T19:11:58.967Z,10.32
2018-12-30T19:14:49.448Z,9.95
2018-12-30T19:17:39.251Z,9.00
2018-12-30T19:20:29.515Z,8.53
2018-12-30T19:23:19.671Z,7.37
2018-12-30T19:26:14.206Z,8.25
2018-12-30T19:29:02.155Z,7.25
2018-12-30T19:31:52.137Z,7.17
2018-12-30T19:34:42.373Z,8.05
2018-12-30T19:37:32.730Z,7.25
2018-12-30T19:40:22.901Z,6.35
2018-12-30T19:43:12.633Z,7.75
2018-12-30T19:46:04.024Z,9.40
2018-12-30T19:48:54.337Z,8.05
2018-12-30T19:51:44.778Z,9.73
2018-12-30T19:54:34.753Z,9.38
2018-12-30T19:57:25.091Z,8.90
2018-12-30T20:00:14.810Z,11.20
2018-12-30T20:03:04.958Z,8.20
2018-12-30T20:05:55.114Z,9.30
2018-12-30T20:08:45.339Z,9.13
2018-12-30T20:11:34.922Z,8.93
2018-12-30T20:14:25.409Z,8.63
2018-12-30T20:17:15.896Z,8.85
2018-12-30T20:20:06.784Z,9.13
2018-12-30T20:22:56.983Z,8.25
2018-12-30T20:25:46.781Z,8.25
2018-12-30T20:28:36.811Z,9.00
2018-12-30T20:31:26.942Z,7.97
2018-12-30T20:34:17.145Z,7.47
2018-12-30T20:37:06.531Z,6.62
2018-12-30T20:39:57.001Z,6.67
2018-12-30T20:42:46.787Z,7.05
2018-12-30T20:45:37.107Z,7.30
2018-12-30T20:48:27.298Z,6.55
2018-12-30T20:51:17.430Z,8.05
2018-12-30T20:54:07.854Z,6.70
2018-12-30T20:56:57.745Z,6.95
2018-12-30T20:59:47.661Z,6.85
2018-12-30T21:02:37.518Z,7.03
2018-12-30T21:05:27.718Z,6.72
2018-12-30T21:08:17.700Z,7.37
2018-12-30T21:11:08.385Z,7.92
2018-12-30T21:13:58.456Z,7.22
2018-12-30T21:16:49.224Z,7.07
2018-12-30T21:19:39.405Z,6.50
2018-12-30T21:22:29.732Z,7.15
2018-12-30T21:25:19.715Z,7.62
2018-12-30T21:28:10.130Z,6.70
2018-12-30T21:30:59.916Z,7.80
2018-12-30T21:33:49.901Z,6.22
2018-12-30T21:36:39.555Z,6.80
2018-12-30T21:39:29.449Z,6.67
2018-12-30T21:42:19.177Z,6.72
2018-12-30T21:45:09.564Z,6.50
2018-12-30T21:47:59.584Z,6.78
2018-12-30T21:50:48.991Z,7.12
2018-12-30T21:53:38.956Z,6.47
2018-12-30T21:56:29.363Z,7.33
2018-12-30T21:59:19.646Z,7.37
2018-12-30T22:02:09.636Z,7.35
2018-12-30T22:04:59.147Z,6.00
2018-12-30T22:07:49.300Z,6.25
2018-12-30T22:10:39.675Z,6.78
2018-12-30T22:13:29.244Z,7.17
2018-12-30T22:16:19.526Z,7.00
2018-12-30T22:19:10.790Z,7.10
2018-12-30T22:22:00.810Z,7.42
2018-12-30T22:24:50.543Z,7.28
2018-12-30T22:27:40.969Z,7.80
2018-12-30T22:30:30.886Z,6.40
2018-12-30T22:33:20.768Z,7.95
2018-12-30T22:36:11.151Z,7.40
2018-12-30T22:39:01.420Z,6.70
2018-12-30T22:41:51.890Z,7.10
2018-12-30T22:44:42.191Z,6.90
2018-12-30T22:47:32.358Z,8.40
2018-12-30T22:50:22.348Z,5.95
2018-12-30T22:53:12.348Z,6.25
2018-12-30T22:56:02.205Z,7.80
2018-12-30T22:58:51.962Z,7.08
2018-12-30T23:01:44.172Z,7.27
2018-12-30T23:04:34.380Z,7.05
2018-12-30T23:07:24.812Z,7.50
2018-12-30T23:10:14.672Z,9.18
2018-12-30T23:13:04.624Z,7.47
2018-12-30T23:15:54.380Z,7.93
2018-12-30T23:18:44.382Z,7.45
2018-12-30T23:21:34.147Z,7.37
2018-12-30T23:24:23.848Z,7.03
2018-12-30T23:27:13.933Z,7.17
2018-12-30T23:30:03.883Z,7.43
2018-12-30T23:32:54.243Z,7.20
2018-12-30T23:35:44.030Z,7.55
2018-12-30T23:38:34.270Z,6.75
2018-12-30T23:41:24.230Z,6.33
2018-12-30T23:44:14.308Z,7.45
2018-12-30T23:47:04.884Z,7.15
2018-12-30T23:49:54.936Z,7.92
2018-12-30T23:52:44.679Z,7.15
2018-12-30T23:55:34.765Z,7.62
2018-12-30T23:58:25.200Z,6.87
